sensor_id;sensor_type;location;lat;lon;timestamp;P1;durP1;ratioP1;P2;durP2;ratioP2
46589;SDS011;32313;48.722;9.362;2023-11-21T00:00:12;17.10;;;12.07;;
46589;SDS011;32313;48.722;9.362;2023-11-21T00:02:44;17.17;;;11.97;;
46589;SDS011;32313;48.722;9.362;2023-11-21T00:05:11;14.67;;;11.17;;
46589;SDS011;32313;48.722;9.362;2023-11-21T00:07:39;17.70;;;11.83;;
46589;SDS011;32313;48.722;9.362;2023-11-21T00:10:06;17.43;;;11.40;;
46589;SDS011;32313;48.722;9.362;2023-11-21T00:12:33;13.60;;;11.33;;
46589;SDS011;32313;48.722;9.362;2023-11-21T00:14:59;16.83;;;12.13;;
46589;SDS011;32313;48.722;9.362;2023-11-21T00:17:27;16.60;;;11.63;;
46589;SDS011;32313;48.722;9.362;2023-11-21T00:19:53;14.63;;;11.63;;
46589;SDS011;32313;48.722;9.362;2023-11-21T00:22:18;17.40;;;12.67;;
46589;SDS011;32313;48.722;9.362;2023-11-21T00:24:45;17.17;;;11.27;;
46589;SDS011;32313;48.722;9.362;2023-11-21T00:27:11;17.23;;;12.27;;
46589;SDS011;32313;48.722;9.362;2023-11-21T00:29:36;15.50;;;10.97;;
46589;SDS011;32313;48.722;9.362;2023-11-21T00:32:04;16.87;;;11.07;;
46589;SDS011;32313;48.722;9.362;2023-11-21T00:34:30;21.33;;;12.40;;
46589;SDS011;32313;48.722;9.362;2023-11-21T00:36:57;18.47;;;11.60;;
46589;SDS011;32313;48.722;9.362;2023-11-21T00:39:23;16.70;;;10.50;;
46589;SDS011;32313;48.722;9.362;2023-11-21T00:41:50;16.80;;;11.27;;
46589;SDS011;32313;48.722;9.362;2023-11-21T00:44:17;15.20;;;10.43;;
46589;SDS011;32313;48.722;9.362;2023-11-21T00:46:43;20.87;;;11.87;;
46589;SDS011;32313;48.722;9.362;2023-11-21T00:49:09;14.77;;;10.73;;
46589;SDS011;32313;48.722;9.362;2023-11-21T00:51:34;15.97;;;10.13;;
46589;SDS011;32313;48.722;9.362;2023-11-21T00:54:01;18.43;;;11.00;;
46589;SDS011;32313;48.722;9.362;2023-11-21T00:56:27;17.87;;;11.77;;
46589;SDS011;32313;48.722;9.362;2023-11-21T00:58:53;16.43;;;11.93;;
46589;SDS011;32313;48.722;9.362;2023-11-21T01:01:19;19.93;;;12.40;;
46589;SDS011;32313;48.722;9.362;2023-11-21T01:03:45;14.50;;;11.30;;
46589;SDS011;32313;48.722;9.362;2023-11-21T01:06:12;16.00;;;10.97;;
46589;SDS011;32313;48.722;9.362;2023-11-21T01:08:37;17.17;;;11.23;;
46589;SDS011;32313;48.722;9.362;2023-11-21T01:11:03;21.47;;;11.70;;
46589;SDS011;32313;48.722;9.362;2023-11-21T01:13:30;16.23;;;11.17;;
46589;SDS011;32313;48.722;9.362;2023-11-21T01:15:56;13.23;;;10.73;;
46589;SDS011;32313;48.722;9.362;2023-11-21T01:18:22;15.97;;;11.57;;
46589;SDS011;32313;48.722;9.362;2023-11-21T01:20:50;20.33;;;11.53;;
46589;SDS011;32313;48.722;9.362;2023-11-21T01:23:19;15.80;;;11.47;;
46589;SDS011;32313;48.722;9.362;2023-11-21T01:25:45;16.43;;;11.97;;
46589;SDS011;32313;48.722;9.362;2023-11-21T01:28:10;12.90;;;9.97;;
46589;SDS011;32313;48.722;9.362;2023-11-21T01:30:37;13.10;;;10.07;;
46589;SDS011;32313;48.722;9.362;2023-11-21T01:33:02;15.90;;;10.03;;
46589;SDS011;32313;48.722;9.362;2023-11-21T01:35:29;15.70;;;10.27;;
46589;SDS011;32313;48.722;9.362;2023-11-21T01:37:55;12.73;;;10.33;;
46589;SDS011;32313;48.722;9.362;2023-11-21T01:40:21;20.80;;;11.13;;
46589;SDS011;32313;48.722;9.362;2023-11-21T01:42:47;14.07;;;10.57;;
46589;SDS011;32313;48.722;9.362;2023-11-21T01:45:13;18.87;;;10.53;;
46589;SDS011;32313;48.722;9.362;2023-11-21T01:47:40;14.73;;;8.93;;
46589;SDS011;32313;48.722;9.362;2023-11-21T01:50:07;16.60;;;10.00;;
46589;SDS011;32313;48.722;9.362;2023-11-21T01:52:37;11.07;;;9.63;;
46589;SDS011;32313;48.722;9.362;2023-11-21T01:55:04;12.17;;;9.13;;
46589;SDS011;32313;48.722;9.362;2023-11-21T01:57:33;13.03;;;9.50;;
46589;SDS011;32313;48.722;9.362;2023-11-21T02:00:00;11.37;;;8.97;;
46589;SDS011;32313;48.722;9.362;2023-11-21T02:02:41;11.87;;;9.00;;
46589;SDS011;32313;48.722;9.362;2023-11-21T02:05:11;11.90;;;9.60;;
46589;SDS011;32313;48.722;9.362;2023-11-21T02:07:39;13.80;;;9.43;;
46589;SDS011;32313;48.722;9.362;2023-11-21T02:10:05;13.97;;;10.27;;
46589;SDS011;32313;48.722;9.362;2023-11-21T02:12:32;10.37;;;8.63;;
46589;SDS011;32313;48.722;9.362;2023-11-21T02:15:00;11.57;;;8.63;;
46589;SDS011;32313;48.722;9.362;2023-11-21T02:17:30;13.37;;;8.77;;
46589;SDS011;32313;48.722;9.362;2023-11-21T02:19:57;12.43;;;9.00;;
46589;SDS011;32313;48.722;9.362;2023-11-21T02:22:25;11.73;;;8.67;;
46589;SDS011;32313;48.722;9.362;2023-11-21T02:24:55;14.13;;;8.47;;
46589;SDS011;32313;48.722;9.362;2023-11-21T02:27:23;16.00;;;9.10;;
46589;SDS011;32313;48.722;9.362;2023-11-21T02:29:49;16.07;;;8.90;;
46589;SDS011;32313;48.722;9.362;2023-11-21T02:32:22;10.70;;;9.10;;
46589;SDS011;32313;48.722;9.362;2023-11-21T02:34:48;13.37;;;9.20;;
46589;SDS011;32313;48.722;9.362;2023-11-21T02:37:16;14.43;;;9.83;;
46589;SDS011;32313;48.722;9.362;2023-11-21T02:39:41;14.80;;;9.40;;
46589;SDS011;32313;48.722;9.362;2023-11-21T02:42:07;10.03;;;8.97;;
46589;SDS011;32313;48.722;9.362;2023-11-21T02:44:33;16.27;;;9.67;;
46589;SDS011;32313;48.722;9.362;2023-11-21T02:47:00;12.23;;;9.33;;
46589;SDS011;32313;48.722;9.362;2023-11-21T02:49:26;11.83;;;8.67;;
46589;SDS011;32313;48.722;9.362;2023-11-21T02:51:56;13.17;;;8.27;;
46589;SDS011;32313;48.722;9.362;2023-11-21T02:54:21;12.03;;;7.87;;
46589;SDS011;32313;48.722;9.362;2023-11-21T02:56:48;12.47;;;8.47;;
46589;SDS011;32313;48.722;9.362;2023-11-21T02:59:14;8.70;;;7.67;;
46589;SDS011;32313;48.722;9.362;2023-11-21T03:01:40;14.10;;;8.70;;
46589;SDS011;32313;48.722;9.362;2023-11-21T03:04:07;12.23;;;8.20;;
46589;SDS011;32313;48.722;9.362;2023-11-21T03:06:33;11.17;;;7.97;;
46589;SDS011;32313;48.722;9.362;2023-11-21T03:08:59;8.67;;;7.77;;
46589;SDS011;32313;48.722;9.362;2023-11-21T03:11:25;14.80;;;8.57;;
46589;SDS011;32313;48.722;9.362;2023-11-21T03:13:50;10.97;;;8.03;;
46589;SDS011;32313;48.722;9.362;2023-11-21T03:16:17;13.07;;;7.03;;
46589;SDS011;32313;48.722;9.362;2023-11-21T03:18:45;10.70;;;7.53;;
46589;SDS011;32313;48.722;9.362;2023-11-21T03:21:11;8.23;;;6.83;;
46589;SDS011;32313;48.722;9.362;2023-11-21T03:23:38;8.17;;;7.30;;
46589;SDS011;32313;48.722;9.362;2023-11-21T03:26:03;9.37;;;7.77;;
46589;SDS011;32313;48.722;9.362;2023-11-21T03:28:29;10.17;;;6.50;;
46589;SDS011;32313;48.722;9.362;2023-11-21T03:30:55;6.73;;;6.13;;
46589;SDS011;32313;48.722;9.362;2023-11-21T03:33:23;8.63;;;7.03;;
46589;SDS011;32313;48.722;9.362;2023-11-21T03:35:48;8.37;;;6.47;;
46589;SDS011;32313;48.722;9.362;2023-11-21T03:38:14;9.20;;;6.43;;
46589;SDS011;32313;48.722;9.362;2023-11-21T03:40:41;6.57;;;5.97;;
46589;SDS011;32313;48.722;9.362;2023-11-21T03:43:07;8.70;;;6.47;;
46589;SDS011;32313;48.722;9.362;2023-11-21T03:45:32;7.70;;;6.10;;
46589;SDS011;32313;48.722;9.362;2023-11-21T03:47:58;8.73;;;6.60;;
46589;SDS011;32313;48.722;9.362;2023-11-21T03:50:28;8.87;;;6.37;;
46589;SDS011;32313;48.722;9.362;2023-11-21T03:52:54;7.20;;;6.13;;
46589;SDS011;32313;48.722;9.362;2023-11-21T03:55:20;9.87;;;7.20;;
46589;SDS011;32313;48.722;9.362;2023-11-21T03:57:46;7.30;;;5.53;;
46589;SDS011;32313;48.722;9.362;2023-11-21T04:00:12;6.77;;;6.17;;
46589;SDS011;32313;48.722;9.362;2023-11-21T04:02:38;6.43;;;5.87;;
46589;SDS011;32313;48.722;9.362;2023-11-21T04:05:04;8.70;;;5.73;;
46589;SDS011;32313;48.722;9.362;2023-11-21T04:07:32;9.63;;;5.67;;
46589;SDS011;32313;48.722;9.362;2023-11-21T04:09:57;7.23;;;5.43;;
46589;SDS011;32313;48.722;9.362;2023-11-21T04:12:24;7.10;;;5.70;;
46589;SDS011;32313;48.722;9.362;2023-11-21T04:14:49;6.07;;;5.47;;
46589;SDS011;32313;48.722;9.362;2023-11-21T04:17:17;6.63;;;5.93;;
46589;SDS011;32313;48.722;9.362;2023-11-21T04:19:45;7.80;;;6.30;;
46589;SDS011;32313;48.722;9.362;2023-11-21T04:22:11;9.30;;;6.47;;
46589;SDS011;32313;48.722;9.362;2023-11-21T04:24:37;10.83;;;6.67;;
46589;SDS011;32313;48.722;9.362;2023-11-21T04:27:02;6.10;;;5.50;;
46589;SDS011;32313;48.722;9.362;2023-11-21T04:29:28;5.60;;;5.10;;
46589;SDS011;32313;48.722;9.362;2023-11-21T04:32:01;8.30;;;5.57;;
46589;SDS011;32313;48.722;9.362;2023-11-21T04:34:27;8.50;;;6.53;;
46589;SDS011;32313;48.722;9.362;2023-11-21T04:36:56;10.90;;;7.70;;
46589;SDS011;32313;48.722;9.362;2023-11-21T04:39:22;8.97;;;8.10;;
46589;SDS011;32313;48.722;9.362;2023-11-21T04:41:48;9.17;;;7.57;;
46589;SDS011;32313;48.722;9.362;2023-11-21T04:44:23;9.83;;;8.83;;
46589;SDS011;32313;48.722;9.362;2023-11-21T04:46:48;8.43;;;6.80;;
46589;SDS011;32313;48.722;9.362;2023-11-21T04:49:14;9.37;;;6.90;;
46589;SDS011;32313;48.722;9.362;2023-11-21T04:51:40;8.87;;;7.33;;
46589;SDS011;32313;48.722;9.362;2023-11-21T04:54:05;8.73;;;6.80;;
46589;SDS011;32313;48.722;9.362;2023-11-21T04:56:31;9.97;;;7.40;;
46589;SDS011;32313;48.722;9.362;2023-11-21T04:58:57;7.73;;;6.97;;
46589;SDS011;32313;48.722;9.362;2023-11-21T05:01:23;12.20;;;8.07;;
46589;SDS011;32313;48.722;9.362;2023-11-21T05:03:48;8.07;;;6.90;;
46589;SDS011;32313;48.722;9.362;2023-11-21T05:06:15;9.40;;;8.10;;
46589;SDS011;32313;48.722;9.362;2023-11-21T05:08:41;12.63;;;7.63;;
46589;SDS011;32313;48.722;9.362;2023-11-21T05:11:07;10.53;;;7.20;;
46589;SDS011;32313;48.722;9.362;2023-11-21T05:13:35;9.17;;;7.53;;
46589;SDS011;32313;48.722;9.362;2023-11-21T05:16:01;8.67;;;7.17;;
46589;SDS011;32313;48.722;9.362;2023-11-21T05:18:29;8.70;;;7.77;;
46589;SDS011;32313;48.722;9.362;2023-11-21T05:20:55;8.73;;;6.37;;
46589;SDS011;32313;48.722;9.362;2023-11-21T05:23:21;11.83;;;6.87;;
46589;SDS011;32313;48.722;9.362;2023-11-21T05:25:47;9.60;;;7.10;;
46589;SDS011;32313;48.722;9.362;2023-11-21T05:28:12;9.57;;;7.63;;
46589;SDS011;32313;48.722;9.362;2023-11-21T05:30:38;13.77;;;8.47;;
46589;SDS011;32313;48.722;9.362;2023-11-21T05:33:04;11.67;;;7.50;;
46589;SDS011;32313;48.722;9.362;2023-11-21T05:35:30;9.33;;;7.60;;
46589;SDS011;32313;48.722;9.362;2023-11-21T05:37:56;9.97;;;8.47;;
46589;SDS011;32313;48.722;9.362;2023-11-21T05:40:22;9.97;;;8.97;;
46589;SDS011;32313;48.722;9.362;2023-11-21T05:42:48;11.77;;;9.67;;
46589;SDS011;32313;48.722;9.362;2023-11-21T05:45:14;11.43;;;10.13;;
46589;SDS011;32313;48.722;9.362;2023-11-21T05:47:44;12.73;;;10.53;;
46589;SDS011;32313;48.722;9.362;2023-11-21T05:50:12;9.53;;;8.60;;
46589;SDS011;32313;48.722;9.362;2023-11-21T05:52:43;9.23;;;7.90;;
46589;SDS011;32313;48.722;9.362;2023-11-21T05:55:10;8.10;;;7.27;;
46589;SDS011;32313;48.722;9.362;2023-11-21T05:57:36;9.33;;;7.43;;
46589;SDS011;32313;48.722;9.362;2023-11-21T06:00:07;12.17;;;9.57;;
46589;SDS011;32313;48.722;9.362;2023-11-21T06:02:46;15.57;;;10.73;;
46589;SDS011;32313;48.722;9.362;2023-11-21T06:05:12;23.63;;;14.00;;
46589;SDS011;32313;48.722;9.362;2023-11-21T06:07:38;18.77;;;13.10;;
46589;SDS011;32313;48.722;9.362;2023-11-21T06:10:05;16.27;;;11.83;;
46589;SDS011;32313;48.722;9.362;2023-11-21T06:12:34;18.13;;;11.60;;
46589;SDS011;32313;48.722;9.362;2023-11-21T06:15:04;15.83;;;10.30;;
46589;SDS011;32313;48.722;9.362;2023-11-21T06:17:31;9.67;;;8.67;;
46589;SDS011;32313;48.722;9.362;2023-11-21T06:19:57;13.83;;;9.77;;
46589;SDS011;32313;48.722;9.362;2023-11-21T06:22:22;9.67;;;8.17;;
46589;SDS011;32313;48.722;9.362;2023-11-21T06:24:48;8.47;;;7.57;;
46589;SDS011;32313;48.722;9.362;2023-11-21T06:27:14;12.23;;;8.67;;
46589;SDS011;32313;48.722;9.362;2023-11-21T06:29:41;8.90;;;8.00;;
46589;SDS011;32313;48.722;9.362;2023-11-21T06:32:07;8.77;;;7.87;;
46589;SDS011;32313;48.722;9.362;2023-11-21T06:34:33;8.83;;;7.90;;
46589;SDS011;32313;48.722;9.362;2023-11-21T06:36:59;9.20;;;8.27;;
46589;SDS011;32313;48.722;9.362;2023-11-21T06:39:24;8.50;;;7.67;;
46589;SDS011;32313;48.722;9.362;2023-11-21T06:41:50;7.50;;;6.90;;
46589;SDS011;32313;48.722;9.362;2023-11-21T06:44:16;7.90;;;7.23;;
46589;SDS011;32313;48.722;9.362;2023-11-21T06:46:41;9.97;;;8.10;;
46589;SDS011;32313;48.722;9.362;2023-11-21T06:49:07;7.93;;;7.23;;
46589;SDS011;32313;48.722;9.362;2023-11-21T06:51:33;10.80;;;7.53;;
46589;SDS011;32313;48.722;9.362;2023-11-21T06:53:59;9.47;;;7.20;;
46589;SDS011;32313;48.722;9.362;2023-11-21T06:56:24;7.67;;;6.97;;
46589;SDS011;32313;48.722;9.362;2023-11-21T06:58:50;8.40;;;6.97;;
46589;SDS011;32313;48.722;9.362;2023-11-21T07:01:19;7.03;;;6.43;;
46589;SDS011;32313;48.722;9.362;2023-11-21T07:03:45;8.97;;;6.93;;
46589;SDS011;32313;48.722;9.362;2023-11-21T07:06:11;8.93;;;6.77;;
46589;SDS011;32313;48.722;9.362;2023-11-21T07:08:36;7.83;;;7.10;;
46589;SDS011;32313;48.722;9.362;2023-11-21T07:11:03;9.03;;;7.77;;
46589;SDS011;32313;48.722;9.362;2023-11-21T07:13:29;9.03;;;8.03;;
46589;SDS011;32313;48.722;9.362;2023-11-21T07:15:55;8.53;;;7.53;;
46589;SDS011;32313;48.722;9.362;2023-11-21T07:18:21;8.40;;;7.43;;
46589;SDS011;32313;48.722;9.362;2023-11-21T07:20:48;8.77;;;7.43;;
46589;SDS011;32313;48.722;9.362;2023-11-21T07:23:13;7.77;;;7.07;;
46589;SDS011;32313;48.722;9.362;2023-11-21T07:25:40;7.57;;;6.40;;
46589;SDS011;32313;48.722;9.362;2023-11-21T07:28:08;7.17;;;6.47;;
46589;SDS011;32313;48.722;9.362;2023-11-21T07:30:34;7.87;;;7.10;;
46589;SDS011;32313;48.722;9.362;2023-11-21T07:33:00;7.67;;;6.97;;
46589;SDS011;32313;48.722;9.362;2023-11-21T07:35:26;10.90;;;6.57;;
46589;SDS011;32313;48.722;9.362;2023-11-21T07:37:51;8.73;;;6.97;;
46589;SDS011;32313;48.722;9.362;2023-11-21T07:40:17;7.60;;;6.90;;
46589;SDS011;32313;48.722;9.362;2023-11-21T07:42:43;7.33;;;6.77;;
46589;SDS011;32313;48.722;9.362;2023-11-21T07:45:09;12.23;;;9.23;;
46589;SDS011;32313;48.722;9.362;2023-11-21T07:47:36;9.67;;;8.33;;
46589;SDS011;32313;48.722;9.362;2023-11-21T07:50:05;7.77;;;6.97;;
46589;SDS011;32313;48.722;9.362;2023-11-21T07:52:32;11.63;;;10.53;;
46589;SDS011;32313;48.722;9.362;2023-11-21T07:54:58;10.60;;;9.50;;
46589;SDS011;32313;48.722;9.362;2023-11-21T07:57:24;11.90;;;10.80;;
46589;SDS011;32313;48.722;9.362;2023-11-21T07:59:50;17.93;;;14.50;;
46589;SDS011;32313;48.722;9.362;2023-11-21T08:02:15;11.77;;;10.13;;
46589;SDS011;32313;48.722;9.362;2023-11-21T08:04:43;14.37;;;12.60;;
46589;SDS011;32313;48.722;9.362;2023-11-21T08:07:09;11.90;;;10.13;;
46589;SDS011;32313;48.722;9.362;2023-11-21T08:09:36;9.87;;;8.00;;
46589;SDS011;32313;48.722;9.362;2023-11-21T08:12:01;6.67;;;5.70;;
46589;SDS011;32313;48.722;9.362;2023-11-21T08:14:28;6.50;;;5.90;;
46589;SDS011;32313;48.722;9.362;2023-11-21T08:16:53;6.10;;;5.50;;
46589;SDS011;32313;48.722;9.362;2023-11-21T08:19:22;5.53;;;4.97;;
46589;SDS011;32313;48.722;9.362;2023-11-21T08:21:50;6.00;;;5.40;;
46589;SDS011;32313;48.722;9.362;2023-11-21T08:24:16;5.73;;;5.10;;
46589;SDS011;32313;48.722;9.362;2023-11-21T08:26:42;5.50;;;4.90;;
46589;SDS011;32313;48.722;9.362;2023-11-21T08:29:08;5.80;;;5.40;;
46589;SDS011;32313;48.722;9.362;2023-11-21T08:31:33;5.43;;;4.90;;
46589;SDS011;32313;48.722;9.362;2023-11-21T08:33:59;5.70;;;5.20;;
46589;SDS011;32313;48.722;9.362;2023-11-21T08:36:28;4.77;;;4.47;;
46589;SDS011;32313;48.722;9.362;2023-11-21T08:38:53;5.40;;;5.00;;
46589;SDS011;32313;48.722;9.362;2023-11-21T08:41:19;6.10;;;5.50;;
46589;SDS011;32313;48.722;9.362;2023-11-21T08:43:47;7.20;;;5.77;;
46589;SDS011;32313;48.722;9.362;2023-11-21T08:46:14;5.73;;;5.23;;
46589;SDS011;32313;48.722;9.362;2023-11-21T08:48:42;6.30;;;5.70;;
46589;SDS011;32313;48.722;9.362;2023-11-21T08:51:10;6.33;;;5.73;;
46589;SDS011;32313;48.722;9.362;2023-11-21T08:53:36;5.63;;;5.10;;
46589;SDS011;32313;48.722;9.362;2023-11-21T08:56:03;6.00;;;5.50;;
46589;SDS011;32313;48.722;9.362;2023-11-21T08:58:29;6.20;;;5.30;;
46589;SDS011;32313;48.722;9.362;2023-11-21T09:00:57;5.70;;;5.20;;
46589;SDS011;32313;48.722;9.362;2023-11-21T09:03:23;7.57;;;5.23;;
46589;SDS011;32313;48.722;9.362;2023-11-21T09:05:48;5.87;;;5.33;;
46589;SDS011;32313;48.722;9.362;2023-11-21T09:08:14;5.83;;;5.43;;
46589;SDS011;32313;48.722;9.362;2023-11-21T09:10:40;7.80;;;5.47;;
46589;SDS011;32313;48.722;9.362;2023-11-21T09:13:07;5.53;;;5.13;;
46589;SDS011;32313;48.722;9.362;2023-11-21T09:15:34;6.33;;;5.73;;
46589;SDS011;32313;48.722;9.362;2023-11-21T09:18:00;6.10;;;5.50;;
46589;SDS011;32313;48.722;9.362;2023-11-21T09:20:32;6.20;;;5.60;;
46589;SDS011;32313;48.722;9.362;2023-11-21T09:22:58;6.53;;;5.93;;
46589;SDS011;32313;48.722;9.362;2023-11-21T09:25:24;5.93;;;5.53;;
46589;SDS011;32313;48.722;9.362;2023-11-21T09:27:49;7.60;;;6.03;;
46589;SDS011;32313;48.722;9.362;2023-11-21T09:30:15;6.27;;;5.77;;
46589;SDS011;32313;48.722;9.362;2023-11-21T09:32:41;7.20;;;5.53;;
46589;SDS011;32313;48.722;9.362;2023-11-21T09:35:10;6.50;;;5.90;;
46589;SDS011;32313;48.722;9.362;2023-11-21T09:37:36;6.53;;;6.03;;
46589;SDS011;32313;48.722;9.362;2023-11-21T09:40:04;5.97;;;5.57;;
46589;SDS011;32313;48.722;9.362;2023-11-21T09:42:43;6.03;;;5.53;;
46589;SDS011;32313;48.722;9.362;2023-11-21T09:45:26;5.57;;;5.10;;
46589;SDS011;32313;48.722;9.362;2023-11-21T09:47:54;5.50;;;5.03;;
46589;SDS011;32313;48.722;9.362;2023-11-21T09:50:23;5.47;;;4.97;;
46589;SDS011;32313;48.722;9.362;2023-11-21T09:55:27;5.10;;;4.70;;
46589;SDS011;32313;48.722;9.362;2023-11-21T09:58:00;4.10;;;3.80;;
46589;SDS011;32313;48.722;9.362;2023-11-21T10:00:28;5.00;;;4.50;;
46589;SDS011;32313;48.722;9.362;2023-11-21T10:02:57;4.50;;;3.97;;
46589;SDS011;32313;48.722;9.362;2023-11-21T10:05:23;3.37;;;3.10;;
46589;SDS011;32313;48.722;9.362;2023-11-21T10:07:50;3.50;;;3.20;;
46589;SDS011;32313;48.722;9.362;2023-11-21T10:10:17;4.00;;;3.00;;
46589;SDS011;32313;48.722;9.362;2023-11-21T10:12:48;7.30;;;3.20;;
46589;SDS011;32313;48.722;9.362;2023-11-21T10:15:18;3.63;;;3.33;;
46589;SDS011;32313;48.722;9.362;2023-11-21T10:17:46;3.60;;;3.30;;
46589;SDS011;32313;48.722;9.362;2023-11-21T10:20:19;3.97;;;3.00;;
46589;SDS011;32313;48.722;9.362;2023-11-21T10:22:45;3.37;;;3.17;;
46589;SDS011;32313;48.722;9.362;2023-11-21T10:25:11;3.70;;;3.40;;
46589;SDS011;32313;48.722;9.362;2023-11-21T10:27:40;3.80;;;3.20;;
46589;SDS011;32313;48.722;9.362;2023-11-21T10:30:09;3.90;;;3.60;;
46589;SDS011;32313;48.722;9.362;2023-11-21T10:32:37;3.73;;;3.43;;
46589;SDS011;32313;48.722;9.362;2023-11-21T10:35:08;3.37;;;3.00;;
46589;SDS011;32313;48.722;9.362;2023-11-21T10:37:37;3.63;;;3.37;;
46589;SDS011;32313;48.722;9.362;2023-11-21T10:40:08;4.57;;;3.50;;
46589;SDS011;32313;48.722;9.362;2023-11-21T10:42:41;3.80;;;3.50;;
46589;SDS011;32313;48.722;9.362;2023-11-21T10:45:07;3.63;;;3.40;;
46589;SDS011;32313;48.722;9.362;2023-11-21T10:47:43;3.50;;;3.20;;
46589;SDS011;32313;48.722;9.362;2023-11-21T10:50:09;3.60;;;3.30;;
46589;SDS011;32313;48.722;9.362;2023-11-21T10:52:36;4.80;;;3.43;;
46589;SDS011;32313;48.722;9.362;2023-11-21T10:55:25;3.47;;;3.27;;
46589;SDS011;32313;48.722;9.362;2023-11-21T10:57:52;4.00;;;2.90;;
46589;SDS011;32313;48.722;9.362;2023-11-21T11:00:19;3.70;;;3.40;;
46589;SDS011;32313;48.722;9.362;2023-11-21T11:02:50;3.33;;;3.03;;
46589;SDS011;32313;48.722;9.362;2023-11-21T11:05:20;4.33;;;3.13;;
46589;SDS011;32313;48.722;9.362;2023-11-21T11:07:50;3.80;;;3.50;;
46589;SDS011;32313;48.722;9.362;2023-11-21T11:10:25;4.23;;;3.53;;
46589;SDS011;32313;48.722;9.362;2023-11-21T11:12:53;4.47;;;3.77;;
46589;SDS011;32313;48.722;9.362;2023-11-21T11:15:19;4.13;;;3.80;;
46589;SDS011;32313;48.722;9.362;2023-11-21T11:17:45;3.63;;;3.33;;
46589;SDS011;32313;48.722;9.362;2023-11-21T11:20:12;3.67;;;3.40;;
46589;SDS011;32313;48.722;9.362;2023-11-21T11:22:59;3.60;;;3.40;;
46589;SDS011;32313;48.722;9.362;2023-11-21T11:31:58;3.73;;;3.37;;
46589;SDS011;32313;48.722;9.362;2023-11-21T11:34:36;2.90;;;2.70;;
46589;SDS011;32313;48.722;9.362;2023-11-21T11:37:18;3.73;;;3.43;;
46589;SDS011;32313;48.722;9.362;2023-11-21T11:39:44;3.13;;;2.83;;
46589;SDS011;32313;48.722;9.362;2023-11-21T11:42:14;3.30;;;3.00;;
46589;SDS011;32313;48.722;9.362;2023-11-21T11:47:16;3.70;;;3.40;;
46589;SDS011;32313;48.722;9.362;2023-11-21T11:52:54;4.13;;;3.83;;
46589;SDS011;32313;48.722;9.362;2023-11-21T11:55:22;3.90;;;3.70;;
46589;SDS011;32313;48.722;9.362;2023-11-21T11:57:53;4.17;;;3.93;;
46589;SDS011;32313;48.722;9.362;2023-11-21T12:02:56;5.83;;;4.03;;
46589;SDS011;32313;48.722;9.362;2023-11-21T12:05:28;4.13;;;3.77;;
46589;SDS011;32313;48.722;9.362;2023-11-21T12:07:58;4.40;;;4.00;;
46589;SDS011;32313;48.722;9.362;2023-11-21T12:10:27;4.80;;;4.37;;
46589;SDS011;32313;48.722;9.362;2023-11-21T12:12:58;4.40;;;4.10;;
46589;SDS011;32313;48.722;9.362;2023-11-21T12:15:26;4.47;;;4.10;;
46589;SDS011;32313;48.722;9.362;2023-11-21T12:17:55;4.40;;;4.10;;
46589;SDS011;32313;48.722;9.362;2023-11-21T12:20:22;4.83;;;3.90;;
46589;SDS011;32313;48.722;9.362;2023-11-21T12:22:55;4.17;;;3.87;;
46589;SDS011;32313;48.722;9.362;2023-11-21T12:25:26;3.90;;;3.70;;
46589;SDS011;32313;48.722;9.362;2023-11-21T12:27:59;4.57;;;4.17;;
46589;SDS011;32313;48.722;9.362;2023-11-21T12:30:26;4.03;;;3.73;;
46589;SDS011;32313;48.722;9.362;2023-11-21T12:32:56;4.50;;;3.80;;
46589;SDS011;32313;48.722;9.362;2023-11-21T12:35:26;3.80;;;3.50;;
46589;SDS011;32313;48.722;9.362;2023-11-21T12:37:54;4.23;;;4.03;;
46589;SDS011;32313;48.722;9.362;2023-11-21T12:40:23;3.97;;;3.67;;
46589;SDS011;32313;48.722;9.362;2023-11-21T12:42:54;3.97;;;3.67;;
46589;SDS011;32313;48.722;9.362;2023-11-21T12:45:25;3.90;;;3.60;;
46589;SDS011;32313;48.722;9.362;2023-11-21T12:50:25;3.70;;;3.50;;
46589;SDS011;32313;48.722;9.362;2023-11-21T12:53:09;4.20;;;3.90;;
46589;SDS011;32313;48.722;9.362;2023-11-21T12:55:41;3.67;;;3.47;;
46589;SDS011;32313;48.722;9.362;2023-11-21T12:58:15;3.70;;;3.20;;
46589;SDS011;32313;48.722;9.362;2023-11-21T13:00:48;3.40;;;3.20;;
46589;SDS011;32313;48.722;9.362;2023-11-21T13:03:15;3.27;;;3.00;;
46589;SDS011;32313;48.722;9.362;2023-11-21T13:05:43;4.10;;;3.73;;
46589;SDS011;32313;48.722;9.362;2023-11-21T13:08:11;3.70;;;3.40;;
46589;SDS011;32313;48.722;9.362;2023-11-21T13:10:42;3.67;;;3.37;;
46589;SDS011;32313;48.722;9.362;2023-11-21T13:13:12;3.60;;;3.30;;
46589;SDS011;32313;48.722;9.362;2023-11-21T13:15:47;3.30;;;3.10;;
46589;SDS011;32313;48.722;9.362;2023-11-21T13:18:30;4.07;;;3.20;;
46589;SDS011;32313;48.722;9.362;2023-11-21T13:20:57;3.30;;;3.10;;
46589;SDS011;32313;48.722;9.362;2023-11-21T13:23:25;3.50;;;3.20;;
46589;SDS011;32313;48.722;9.362;2023-11-21T13:25:51;3.20;;;3.00;;
46589;SDS011;32313;48.722;9.362;2023-11-21T13:28:18;3.37;;;3.10;;
46589;SDS011;32313;48.722;9.362;2023-11-21T13:30:46;3.30;;;3.00;;
46589;SDS011;32313;48.722;9.362;2023-11-21T13:33:13;3.93;;;3.30;;
46589;SDS011;32313;48.722;9.362;2023-11-21T13:35:43;3.60;;;3.30;;
46589;SDS011;32313;48.722;9.362;2023-11-21T13:38:14;3.90;;;3.60;;
46589;SDS011;32313;48.722;9.362;2023-11-21T13:40:42;3.60;;;3.20;;
46589;SDS011;32313;48.722;9.362;2023-11-21T13:43:19;3.90;;;3.60;;
46589;SDS011;32313;48.722;9.362;2023-11-21T13:45:47;3.60;;;3.40;;
46589;SDS011;32313;48.722;9.362;2023-11-21T13:48:20;3.97;;;3.67;;
46589;SDS011;32313;48.722;9.362;2023-11-21T13:50:53;3.50;;;3.30;;
46589;SDS011;32313;48.722;9.362;2023-11-21T13:53:24;3.57;;;3.27;;
46589;SDS011;32313;48.722;9.362;2023-11-21T13:55:50;3.40;;;3.20;;
46589;SDS011;32313;48.722;9.362;2023-11-21T13:58:19;2.97;;;2.80;;
46589;SDS011;32313;48.722;9.362;2023-11-21T14:01:00;3.53;;;3.33;;
46589;SDS011;32313;48.722;9.362;2023-11-21T14:03:31;3.03;;;2.93;;
46589;SDS011;32313;48.722;9.362;2023-11-21T14:06:09;3.63;;;3.40;;
46589;SDS011;32313;48.722;9.362;2023-11-21T14:08:40;3.87;;;3.60;;
46589;SDS011;32313;48.722;9.362;2023-11-21T14:11:07;3.70;;;3.50;;
46589;SDS011;32313;48.722;9.362;2023-11-21T14:13:33;4.03;;;3.83;;
46589;SDS011;32313;48.722;9.362;2023-11-21T14:15:58;3.97;;;3.77;;
46589;SDS011;32313;48.722;9.362;2023-11-21T14:18:27;4.23;;;3.93;;
46589;SDS011;32313;48.722;9.362;2023-11-21T14:21:06;4.10;;;3.90;;
46589;SDS011;32313;48.722;9.362;2023-11-21T14:23:33;4.83;;;4.43;;
46589;SDS011;32313;48.722;9.362;2023-11-21T14:26:01;4.93;;;4.63;;
46589;SDS011;32313;48.722;9.362;2023-11-21T14:28:26;4.60;;;4.30;;
46589;SDS011;32313;48.722;9.362;2023-11-21T14:30:52;4.80;;;4.50;;
46589;SDS011;32313;48.722;9.362;2023-11-21T14:33:18;4.90;;;4.50;;
46589;SDS011;32313;48.722;9.362;2023-11-21T14:35:44;4.67;;;4.27;;
46589;SDS011;32313;48.722;9.362;2023-11-21T14:38:09;4.93;;;4.53;;
46589;SDS011;32313;48.722;9.362;2023-11-21T14:40:35;4.80;;;4.33;;
46589;SDS011;32313;48.722;9.362;2023-11-21T14:43:02;4.97;;;4.57;;
46589;SDS011;32313;48.722;9.362;2023-11-21T14:45:31;4.70;;;4.40;;
46589;SDS011;32313;48.722;9.362;2023-11-21T14:47:59;5.37;;;4.87;;
46589;SDS011;32313;48.722;9.362;2023-11-21T14:50:32;5.30;;;4.90;;
46589;SDS011;32313;48.722;9.362;2023-11-21T14:53:08;5.20;;;4.87;;
46589;SDS011;32313;48.722;9.362;2023-11-21T14:55:37;4.47;;;4.17;;
46589;SDS011;32313;48.722;9.362;2023-11-21T14:58:51;4.50;;;4.10;;
46589;SDS011;32313;48.722;9.362;2023-11-21T15:01:17;4.20;;;3.90;;
46589;SDS011;32313;48.722;9.362;2023-11-21T15:03:52;5.20;;;4.90;;